createdAt,value
2019-04-11T00:01:38.736Z,99.90
2019-04-11T00:03:59.668Z,99.90
2019-04-11T00:06:29.640Z,99.90
2019-04-11T00:08:58.645Z,99.90
2019-04-11T00:11:28.071Z,99.90
2019-04-11T00:13:57.787Z,99.90
2019-04-11T00:16:27.032Z,99.90
2019-04-11T00:18:56.838Z,99.90
2019-04-11T00:21:25.873Z,99.90
2019-04-11T00:23:54.540Z,99.90
2019-04-11T00:26:22.983Z,99.90
2019-04-11T00:28:52.095Z,99.90
2019-04-11T00:31:21.028Z,99.90
2019-04-11T00:33:49.423Z,99.90
2019-04-11T00:36:18.323Z,99.90
2019-04-11T00:38:47.848Z,99.90
2019-04-11T00:41:17.513Z,99.90
2019-04-11T00:43:46.902Z,99.90
2019-04-11T00:46:16.239Z,99.90
2019-04-11T00:48:46.133Z,99.90
2019-04-11T00:51:16.126Z,99.90
2019-04-11T00:53:46.468Z,99.90
2019-04-11T00:56:15.793Z,99.90
2019-04-11T00:58:45.625Z,99.90
2019-04-11T01:01:15.565Z,99.90
2019-04-11T01:03:45.322Z,99.90
2019-04-11T01:06:16.133Z,99.90
2019-04-11T01:08:46.017Z,99.90
2019-04-11T01:11:14.377Z,99.90
2019-04-11T01:13:50.355Z,99.90
2019-04-11T01:16:32.634Z,99.90
2019-04-11T01:19:01.124Z,99.90
2019-04-11T01:21:30.651Z,99.90
2019-04-11T01:23:59.607Z,99.90
2019-04-11T01:26:28.773Z,99.90
2019-04-11T01:29:05.114Z,99.90
2019-04-11T01:31:35.893Z,99.90
2019-04-11T01:34:04.605Z,99.90
2019-04-11T01:36:33.638Z,99.90
2019-04-11T01:39:10.648Z,99.90
2019-04-11T01:41:39.512Z,99.90
2019-04-11T01:44:08.918Z,99.90
2019-04-11T01:46:38.240Z,99.90
2019-04-11T01:49:17.130Z,99.90
2019-04-11T01:51:45.663Z,99.90
2019-04-11T01:54:15.228Z,99.90
2019-04-11T01:56:44.114Z,99.90
2019-04-11T01:59:13.377Z,99.90
2019-04-11T02:02:01.534Z,99.90
2019-04-11T02:04:49.623Z,99.90
2019-04-11T02:07:18.555Z,99.90
2019-04-11T02:09:48.371Z,99.90
2019-04-11T02:12:18.420Z,99.90
2019-04-11T02:14:47.987Z,99.90
2019-04-11T02:17:16.773Z,99.90
2019-04-11T02:19:45.440Z,99.90
2019-04-11T02:22:26.546Z,99.90
2019-04-11T02:25:04.407Z,99.90
2019-04-11T02:27:34.828Z,99.90
2019-04-11T02:30:04.512Z,99.90
2019-04-11T02:32:34.517Z,99.90
2019-04-11T02:35:05.128Z,99.90
2019-04-11T02:37:34.578Z,99.90
2019-04-11T02:40:05.876Z,99.90
2019-04-11T02:42:35.812Z,99.90
2019-04-11T02:45:19.653Z,99.90
2019-04-11T02:47:37.450Z,99.90
2019-04-11T02:50:08.135Z,99.90
2019-04-11T02:52:37.759Z,99.90
2019-04-11T02:55:08.517Z,99.90
2019-04-11T02:57:38.569Z,99.90
2019-04-11T03:00:08.955Z,99.90
2019-04-11T03:02:39.399Z,99.90
2019-04-11T03:05:09.951Z,99.90
2019-04-11T03:07:42.303Z,99.90
2019-04-11T03:10:12.314Z,99.90
2019-04-11T03:12:43.679Z,99.90
2019-04-11T03:15:27.476Z,99.90
2019-04-11T03:17:44.531Z,99.90
2019-04-11T03:20:23.105Z,99.90
2019-04-11T03:22:45.314Z,99.90
2019-04-11T03:25:14.163Z,99.90
2019-04-11T03:27:43.807Z,99.90
2019-04-11T03:30:19.536Z,99.90
2019-04-11T03:38:03.806Z,99.90
2019-04-11T03:40:33.542Z,99.90
2019-04-11T03:43:04.092Z,99.90
2019-04-11T03:45:38.428Z,99.90
2019-04-11T03:48:06.193Z,99.90
2019-04-11T03:50:23.913Z,99.90
2019-04-11T03:52:51.787Z,99.90
2019-04-11T03:55:23.274Z,99.90
2019-04-11T03:57:54.231Z,99.90
2019-04-11T04:00:24.718Z,99.90
2019-04-11T04:02:55.101Z,99.90
2019-04-11T04:05:23.862Z,99.90
2019-04-11T04:07:55.274Z,99.90
2019-04-11T04:10:25.750Z,99.90
2019-04-11T04:12:55.931Z,99.90
2019-04-11T04:16:12.129Z,99.90
2019-04-11T04:18:56.562Z,99.90
2019-04-11T04:21:49.066Z,99.90
2019-04-11T04:24:34.067Z,99.90
2019-04-11T04:27:01.736Z,99.90
2019-04-11T04:29:32.053Z,99.90
2019-04-11T04:32:02.600Z,99.90
2019-04-11T04:34:36.210Z,99.90
2019-04-11T04:37:07.761Z,99.90
2019-04-11T04:39:37.679Z,99.90
2019-04-11T04:42:17.364Z,99.90
2019-04-11T04:44:38.186Z,99.90
2019-04-11T04:47:17.202Z,99.90
2019-04-11T04:49:38.873Z,99.90
2019-04-11T04:52:11.825Z,99.90
2019-04-11T04:54:41.103Z,99.90
2019-04-11T04:57:12.890Z,99.90
2019-04-11T04:59:42.316Z,99.90
2019-04-11T05:02:12.239Z,99.90
2019-04-11T05:04:40.817Z,99.90
2019-04-11T05:07:09.745Z,99.90
2019-04-11T05:09:40.520Z,99.90
2019-04-11T05:12:20.525Z,99.90
2019-04-11T05:15:03.666Z,99.90
2019-04-11T05:17:33.042Z,99.90
2019-04-11T05:20:04.941Z,99.90
2019-04-11T05:22:35.142Z,99.90
2019-04-11T05:25:05.428Z,99.90
2019-04-11T05:27:35.747Z,99.90
2019-04-11T05:30:05.271Z,99.90
2019-04-11T05:32:33.838Z,99.90
2019-04-11T05:35:02.917Z,99.90
2019-04-11T05:37:31.656Z,99.90
2019-04-11T05:40:00.879Z,99.90
2019-04-11T05:42:29.613Z,99.90
2019-04-11T05:44:59.119Z,99.90
2019-04-11T05:47:27.809Z,99.90
2019-04-11T05:50:15.946Z,99.90
2019-04-11T05:52:44.663Z,99.90
2019-04-11T05:55:15.501Z,99.90
2019-04-11T05:57:46.907Z,99.90
2019-04-11T06:00:50.013Z,99.90
2019-04-11T06:03:28.333Z,99.90
2019-04-11T06:06:24.646Z,99.90
2019-04-11T06:09:13.326Z,99.90
2019-04-11T06:12:09.663Z,99.90
2019-04-11T06:15:20.071Z,99.90
2019-04-11T06:17:58.599Z,99.90
2019-04-11T06:20:47.242Z,99.90
2019-04-11T06:23:49.747Z,99.90
2019-04-11T06:26:35.850Z,99.90
2019-04-11T06:29:23.240Z,99.90
2019-04-11T06:32:34.138Z,99.90
2019-04-11T06:35:21.959Z,99.90
2019-04-11T06:38:34.925Z,99.90
2019-04-11T06:41:32.666Z,99.90
2019-04-11T06:44:34.141Z,99.90
2019-04-11T06:47:40.914Z,99.90
2019-04-11T06:50:19.423Z,99.90
2019-04-11T06:53:04.797Z,99.90
2019-04-11T06:56:10.930Z,99.90
2019-04-11T06:58:56.439Z,99.90
2019-04-11T07:01:34.171Z,99.90
2019-04-11T07:04:20.102Z,99.90
2019-04-11T07:06:56.869Z,99.90
2019-04-11T07:10:09.502Z,99.90
2019-04-11T07:12:49.266Z,99.90
2019-04-11T07:15:32.137Z,99.90
2019-04-11T07:18:24.691Z,99.90
2019-04-11T07:21:14.962Z,99.90
2019-04-11T07:24:10.003Z,99.90
2019-04-11T07:26:49.969Z,99.90
2019-04-11T07:30:03.497Z,99.90
2019-04-11T07:32:40.566Z,99.90
2019-04-11T07:35:34.111Z,99.90
2019-04-11T07:38:16.334Z,99.90
2019-04-11T07:41:19.525Z,99.90
2019-04-11T07:43:56.489Z,99.90
2019-04-11T07:46:55.929Z,99.90
2019-04-11T07:49:35.293Z,99.90
2019-04-11T07:52:13.742Z,99.90
2019-04-11T07:54:47.854Z,99.90
2019-04-11T07:57:38.373Z,99.90
2019-04-11T08:00:48.933Z,99.90
2019-04-11T08:03:40.032Z,99.90
2019-04-11T08:06:34.892Z,99.90
2019-04-11T08:09:29.283Z,99.90
2019-04-11T08:12:17.426Z,99.90
2019-04-11T08:15:11.281Z,99.90
2019-04-11T08:17:48.035Z,99.90
2019-04-11T08:20:53.281Z,99.90
2019-04-11T08:23:40.148Z,99.90
2019-04-11T08:26:35.836Z,99.90
2019-04-11T08:29:15.556Z,99.90
2019-04-11T08:32:11.631Z,99.90
2019-04-11T08:34:56.580Z,99.90
2019-04-11T08:37:58.044Z,99.90
2019-04-11T08:40:42.923Z,99.90
2019-04-11T08:43:28.939Z,99.90
2019-04-11T08:46:30.915Z,99.90
2019-04-11T08:49:17.148Z,99.90
2019-04-11T08:52:00.039Z,99.90
2019-04-11T08:54:53.553Z,99.90
2019-04-11T08:57:36.485Z,99.90
2019-04-11T09:00:34.580Z,99.90
2019-04-11T09:04:06.814Z,99.90
2019-04-11T09:06:42.921Z,99.90
2019-04-11T09:09:49.714Z,99.90
2019-04-11T09:12:24.632Z,99.90
2019-04-11T09:15:23.045Z,99.90
2019-04-11T09:18:12.244Z,99.90
2019-04-11T09:21:20.265Z,99.90
2019-04-11T09:23:57.710Z,99.90
2019-04-11T09:27:04.942Z,99.90
2019-04-11T09:29:52.495Z,99.90
2019-04-11T09:33:04.710Z,99.90
2019-04-11T09:35:44.177Z,99.90
2019-04-11T09:38:22.524Z,99.90
2019-04-11T09:41:08.591Z,99.90
2019-04-11T09:43:52.624Z,99.90
2019-04-11T09:46:43.111Z,99.90
2019-04-11T09:49:31.065Z,99.90
2019-04-11T09:52:24.823Z,99.90
2019-04-11T09:55:21.314Z,97.30
2019-04-11T09:58:01.272Z,94.70
2019-04-11T10:01:01.703Z,94.50
2019-04-11T10:03:43.020Z,93.40
2019-04-11T10:06:41.290Z,92.60
2019-04-11T10:09:11.483Z,90.50
2019-04-11T10:12:15.803Z,90.60
2019-04-11T10:14:48.033Z,91.80
2019-04-11T10:17:59.555Z,90.70
2019-04-11T10:20:34.900Z,89.90
2019-04-11T10:23:32.538Z,84.10
2019-04-11T10:26:10.013Z,81.70
2019-04-11T10:29:12.778Z,83.20
2019-04-11T10:32:04.680Z,79.80
2019-04-11T10:35:28.133Z,80.30
2019-04-11T10:38:20.372Z,79.70
2019-04-11T10:41:08.504Z,75.40
2019-04-11T10:43:49.775Z,69.60
2019-04-11T10:46:49.425Z,71.00
2019-04-11T10:49:52.954Z,70.80
2019-04-11T10:52:39.405Z,71.40
2019-04-11T10:55:35.700Z,71.40
2019-04-11T10:58:21.573Z,71.20
2019-04-11T11:01:15.711Z,69.50
2019-04-11T11:04:13.659Z,70.60
2019-04-11T11:06:55.892Z,69.10
2019-04-11T11:09:44.249Z,70.50
2019-04-11T11:12:37.521Z,68.80
2019-04-11T11:15:19.703Z,72.70
2019-04-11T11:19:03.220Z,69.30
2019-04-11T11:21:17.544Z,68.10
2019-04-11T11:24:10.359Z,70.10
2019-04-11T11:26:51.992Z,69.20
2019-04-11T11:29:48.889Z,68.00
2019-04-11T11:32:41.173Z,71.40
2019-04-11T11:35:34.931Z,66.60
2019-04-11T11:38:22.217Z,69.80
2019-04-11T11:41:14.287Z,64.60
2019-04-11T11:43:49.736Z,72.60
2019-04-11T11:46:44.616Z,68.50
2019-04-11T11:49:42.080Z,65.30
2019-04-11T11:52:33.386Z,68.60
2019-04-11T11:55:06.178Z,63.60
2019-04-11T11:58:19.952Z,66.80
2019-04-11T12:01:04.529Z,68.80
2019-04-11T12:03:55.394Z,64.60
2019-04-11T12:06:29.308Z,68.00
2019-04-11T12:09:32.734Z,68.70
2019-04-11T12:12:16.237Z,65.70
2019-04-11T12:15:22.305Z,68.50
2019-04-11T12:18:28.739Z,68.70
2019-04-11T12:21:18.572Z,68.10
2019-04-11T12:24:29.573Z,69.20
2019-04-11T12:27:35.009Z,68.50
2019-04-11T12:30:37.385Z,67.50
2019-04-11T12:33:37.396Z,67.90
2019-04-11T12:36:09.850Z,69.80
2019-04-11T12:38:56.995Z,71.40
2019-04-11T12:41:40.125Z,72.10
2019-04-11T12:44:52.180Z,71.90
2019-04-11T12:47:39.235Z,78.80
2019-04-11T12:50:34.749Z,74.50
2019-04-11T12:53:17.484Z,72.60
2019-04-11T12:56:25.163Z,74.30
2019-04-11T12:59:09.078Z,75.20
2019-04-11T13:02:13.064Z,75.80
2019-04-11T13:04:49.054Z,76.90
2019-04-11T13:07:46.579Z,75.10
2019-04-11T13:10:36.978Z,78.00
2019-04-11T13:13:31.993Z,76.10
2019-04-11T13:16:13.688Z,77.30
2019-04-11T13:19:15.599Z,77.40
2019-04-11T13:21:58.740Z,76.50
2019-04-11T13:25:01.175Z,78.00
2019-04-11T13:27:40.634Z,78.20
2019-04-11T13:30:37.384Z,79.80
2019-04-11T13:33:16.793Z,78.50
2019-04-11T13:36:13.378Z,78.40
2019-04-11T13:38:52.929Z,77.30
2019-04-11T13:42:00.350Z,79.20
2019-04-11T13:44:41.345Z,81.00
2019-04-11T13:47:53.643Z,79.40
2019-04-11T13:50:34.234Z,77.90
2019-04-11T13:53:39.002Z,76.60
2019-04-11T13:56:14.865Z,79.00
2019-04-11T13:59:06.195Z,80.90
2019-04-11T14:01:41.310Z,80.50
2019-04-11T14:04:27.281Z,80.30
2019-04-11T14:07:04.848Z,82.80
2019-04-11T14:09:48.400Z,80.80
2019-04-11T14:12:26.321Z,82.10
2019-04-11T14:15:17.346Z,82.60
2019-04-11T14:18:27.834Z,82.60
2019-04-11T14:21:16.719Z,83.00
2019-04-11T14:24:05.955Z,81.00
2019-04-11T14:26:43.083Z,80.40
2019-04-11T14:30:00.035Z,83.80
2019-04-11T14:32:34.807Z,85.20
2019-04-11T14:35:29.583Z,81.80
2019-04-11T14:38:12.411Z,84.20
2019-04-11T14:41:18.886Z,87.10
2019-04-11T14:44:03.216Z,88.40
2019-04-11T14:46:56.103Z,90.20
2019-04-11T14:49:34.571Z,85.40
2019-04-11T14:52:34.683Z,86.20
2019-04-11T14:55:08.792Z,85.90
2019-04-11T14:58:07.159Z,85.20
2019-04-11T15:00:43.007Z,83.10
2019-04-11T15:03:37.161Z,83.70
2019-04-11T15:06:24.382Z,88.40
2019-04-11T15:09:34.664Z,90.00
2019-04-11T15:12:20.054Z,82.50
2019-04-11T15:15:26.606Z,82.20
2019-04-11T15:18:03.701Z,81.90
2019-04-11T15:21:14.736Z,81.50
2019-04-11T15:24:01.057Z,84.30
2019-04-11T15:26:52.564Z,87.40
2019-04-11T15:29:33.040Z,84.40
2019-04-11T15:32:42.114Z,83.50
2019-04-11T15:35:25.383Z,83.60
2019-04-11T15:38:23.949Z,85.50
2019-04-11T15:41:00.561Z,86.90
2019-04-11T15:43:58.542Z,89.30
2019-04-11T15:46:38.789Z,82.30
2019-04-11T15:49:32.655Z,83.40
2019-04-11T15:52:14.712Z,86.90
2019-04-11T15:54:51.675Z,89.00
2019-04-11T15:57:43.831Z,91.20
2019-04-11T16:00:50.447Z,91.90
2019-04-11T16:03:26.435Z,92.80
2019-04-11T16:06:18.294Z,92.20
2019-04-11T16:09:05.785Z,92.00
2019-04-11T16:12:07.116Z,92.10
2019-04-11T16:14:41.369Z,92.60
2019-04-11T16:17:37.926Z,93.40
2019-04-11T16:20:19.910Z,94.50
2019-04-11T16:23:15.845Z,94.60
2019-04-11T16:26:01.033Z,94.40
2019-04-11T16:28:52.923Z,95.20
2019-04-11T16:31:37.849Z,93.80
2019-04-11T16:34:29.018Z,93.30
2019-04-11T16:37:07.264Z,94.10
2019-04-11T16:40:01.386Z,94.20
2019-04-11T16:42:48.169Z,92.90
2019-04-11T16:45:30.227Z,93.40
2019-04-11T16:48:01.994Z,92.60
2019-04-11T16:50:39.627Z,91.20
2019-04-11T16:53:13.403Z,90.00
2019-04-11T16:55:48.161Z,89.60
2019-04-11T16:58:21.765Z,87.70
2019-04-11T17:01:02.321Z,88.70
2019-04-11T17:03:38.751Z,90.40
2019-04-11T17:06:25.935Z,90.00
2019-04-11T17:09:06.849Z,91.30
2019-04-11T17:11:41.994Z,90.10
2019-04-11T17:14:27.606Z,90.40
2019-04-11T17:17:00.945Z,90.80
2019-04-11T17:19:40.076Z,92.00
2019-04-11T17:22:18.853Z,91.40
2019-04-11T17:24:56.933Z,91.00
2019-04-11T17:27:32.181Z,90.90
2019-04-11T17:30:24.519Z,91.10
2019-04-11T17:33:14.069Z,91.80
2019-04-11T17:35:47.400Z,91.60
2019-04-11T17:38:27.553Z,91.70
2019-04-11T17:41:02.572Z,92.70
2019-04-11T17:43:36.660Z,92.70
2019-04-11T17:46:11.485Z,92.80
2019-04-11T17:48:46.499Z,92.40
2019-04-11T17:51:23.533Z,92.30
2019-04-11T17:54:01.465Z,91.80
2019-04-11T17:56:44.586Z,92.30
2019-04-11T17:59:27.923Z,92.70
2019-04-11T18:02:00.502Z,93.10
2019-04-11T18:04:34.667Z,92.90
2019-04-11T18:07:12.338Z,92.20
2019-04-11T18:09:50.683Z,93.50
2019-04-11T18:12:23.825Z,93.50
2019-04-11T18:15:03.807Z,93.50
2019-04-11T18:17:39.813Z,94.40
2019-04-11T18:20:18.894Z,94.70
2019-04-11T18:22:53.834Z,94.80
2019-04-11T18:25:29.429Z,95.00
2019-04-11T18:28:05.584Z,95.20
2019-04-11T18:30:41.621Z,95.70
2019-04-11T18:33:18.159Z,95.70
2019-04-11T18:35:56.376Z,96.30
2019-04-11T18:38:32.063Z,96.70
2019-04-11T18:41:05.406Z,97.30
2019-04-11T18:43:47.152Z,97.50
2019-04-11T18:46:28.232Z,98.30
2019-04-11T18:49:01.342Z,99.20
2019-04-11T18:51:43.547Z,99.70
2019-04-11T18:54:17.775Z,99.90
2019-04-11T18:56:59.148Z,99.90
2019-04-11T18:59:40.511Z,99.90
2019-04-11T19:02:18.837Z,99.90
2019-04-11T19:05:02.267Z,99.90
2019-04-11T19:07:47.188Z,99.90
2019-04-11T19:10:24.218Z,99.90
2019-04-11T19:13:02.311Z,99.90
2019-04-11T19:15:40.719Z,99.90
2019-04-11T19:18:17.223Z,99.90
2019-04-11T19:20:54.420Z,99.90
2019-04-11T19:23:31.969Z,99.90
2019-04-11T19:26:05.502Z,99.90
2019-04-11T19:28:41.681Z,99.90
2019-04-11T19:31:15.199Z,99.90
2019-04-11T19:33:48.018Z,99.90
2019-04-11T19:36:17.351Z,99.90
2019-04-11T19:38:45.884Z,99.90
2019-04-11T19:41:17.460Z,99.90
2019-04-11T19:43:48.731Z,99.90
2019-04-11T19:46:19.896Z,99.90
2019-04-11T19:48:47.611Z,99.90
2019-04-11T19:51:18.721Z,99.90
2019-04-11T19:53:48.382Z,99.90
2019-04-11T19:56:36.902Z,99.90
2019-04-11T19:59:06.480Z,99.90
2019-04-11T20:01:35.582Z,99.90
2019-04-11T20:04:04.093Z,99.90
2019-04-11T20:06:34.864Z,99.90
2019-04-11T20:09:05.989Z,99.90
2019-04-11T20:11:36.994Z,99.90
2019-04-11T20:14:07.888Z,99.90
2019-04-11T20:16:41.938Z,99.90
2019-04-11T20:19:08.762Z,99.90
2019-04-11T20:21:38.477Z,99.90
2019-04-11T20:24:09.573Z,99.90
2019-04-11T20:26:40.099Z,99.90
2019-04-11T20:29:09.604Z,99.90
2019-04-11T20:31:39.485Z,99.90
2019-04-11T20:34:08.251Z,99.90
2019-04-11T20:36:41.064Z,99.90
2019-04-11T20:39:07.971Z,99.90
2019-04-11T20:41:36.917Z,99.90
2019-04-11T20:44:06.049Z,99.90
2019-04-11T20:46:35.609Z,99.90
2019-04-11T20:49:04.183Z,99.90
2019-04-11T20:51:32.739Z,99.90
2019-04-11T20:54:01.501Z,99.90
2019-04-11T20:56:30.222Z,99.90
2019-04-11T20:58:59.609Z,99.90
2019-04-11T21:01:28.218Z,99.90
2019-04-11T21:04:00.064Z,99.90
2019-04-11T21:06:31.660Z,99.90
2019-04-11T21:08:58.382Z,99.90
2019-04-11T21:11:27.496Z,99.90
2019-04-11T21:13:56.026Z,99.90
2019-04-11T21:16:24.567Z,99.90
2019-04-11T21:18:54.549Z,99.90
2019-04-11T21:21:25.251Z,99.90
2019-04-11T21:23:54.080Z,99.90
2019-04-11T21:26:28.912Z,99.90
2019-04-11T21:28:58.956Z,99.90
2019-04-11T21:31:30.789Z,99.90
2019-04-11T21:33:58.866Z,99.90
2019-04-11T21:36:31.458Z,99.90
2019-04-11T21:38:57.947Z,99.90
2019-04-11T21:41:26.447Z,99.90
2019-04-11T21:43:54.894Z,99.90
2019-04-11T21:46:23.553Z,99.90
2019-04-11T21:48:52.117Z,99.90
2019-04-11T21:51:20.753Z,99.90
2019-04-11T21:53:49.431Z,99.90
2019-04-11T21:56:18.734Z,99.90
2019-04-11T21:58:50.219Z,99.90
2019-04-11T22:01:19.417Z,99.90
2019-04-11T22:03:51.914Z,99.90
2019-04-11T22:06:20.181Z,99.90
2019-04-11T22:08:48.701Z,99.90
2019-04-11T22:11:17.400Z,99.90
2019-04-11T22:13:46.131Z,99.90
2019-04-11T22:16:14.778Z,99.90
2019-04-11T22:18:44.343Z,99.90
2019-04-11T22:21:15.535Z,99.90
2019-04-11T22:23:48.883Z,99.90
2019-04-11T22:26:14.536Z,99.90
2019-04-11T22:28:43.133Z,99.90
2019-04-11T22:31:11.810Z,99.90
2019-04-11T22:34:02.735Z,99.90
2019-04-11T22:36:31.483Z,99.90
2019-04-11T22:39:01.079Z,99.90
2019-04-11T22:41:31.863Z,99.90
2019-04-11T22:44:00.410Z,99.90
2019-04-11T22:46:29.120Z,99.90
2019-04-11T22:48:57.917Z,99.90
2019-04-11T22:51:26.363Z,99.90
2019-04-11T22:54:00.235Z,99.90
2019-04-11T22:56:25.717Z,99.90
2019-04-11T22:58:54.746Z,99.90
2019-04-11T23:01:23.489Z,99.90
2019-04-11T23:03:58.141Z,99.90
2019-04-11T23:06:26.804Z,99.90
2019-04-11T23:08:55.758Z,99.90
2019-04-11T23:11:24.182Z,99.90
2019-04-11T23:13:52.729Z,99.90
2019-04-11T23:16:21.511Z,99.90
2019-04-11T23:18:50.475Z,99.90
2019-04-11T23:21:19.096Z,99.90
2019-04-11T23:23:47.784Z,99.90
2019-04-11T23:26:16.509Z,99.90
2019-04-11T23:28:46.713Z,99.90
2019-04-11T23:31:19.831Z,99.90
2019-04-11T23:33:51.793Z,99.90
2019-04-11T23:36:18.813Z,99.90
2019-04-11T23:38:48.800Z,99.90
2019-04-11T23:41:19.616Z,99.90
2019-04-11T23:43:50.018Z,99.90
2019-04-11T23:46:21.349Z,99.90
2019-04-11T23:48:48.983Z,99.90
2019-04-11T23:51:17.645Z,99.90
2019-04-11T23:53:46.336Z,99.90
2019-04-11T23:56:15.062Z,99.90
2019-04-11T23:58:43.971Z,99.90
